.
WxDataArchive / Data Records for 2014-07-07
2014-07-06 July 2014 2014-07-08

Data Records for Monday, 07 July 2014

Time	Temp	Chill	HIndex	Humid	Dewpt	 Wind 	HiWind	WindDir	Rain 	Barom
-----	----	-----	------	-----	-----	------	------	-------	-----	-----
00:00	75.4	75.4	76.7	74	66.5	1	3	248	0.00	29.790 
00:05	75.4	75.4	76.7	74	66.5	1	3	248	0.00	29.790 
00:10	75.4	75.4	76.7	74	66.5	0	2	248	0.00	29.790 
00:15	75.3	75.3	76.6	74	66.4	0	2	248	0.00	29.796 
00:20	75.3	75.3	76.7	73	66.0	0	3	248	0.00	29.796 
00:25	75.1	75.1	76.5	73	65.8	0	4	248	0.00	29.796 
00:30	75.1	75.1	76.6	72	65.4	1	3	248	0.00	29.796 
00:35	75.3	75.3	76.8	72	65.6	1	2	248	0.00	29.796 
00:40	75.3	75.3	76.9	71	65.2	0	3	248	0.00	29.796 
00:45	75.3	75.3	76.9	71	65.2	0	3	248	0.00	29.787 
00:50	75.1	75.1	76.8	70	64.6	0	2	248	0.00	29.787 
00:55	75.1	75.1	76.8	70	64.6	0	4	248	0.00	29.787 
01:00	74.9	74.9	74.9	70	64.4	0	3	248	0.00	29.777 
01:05	74.9	74.9	74.9	70	64.4	0	2	248	0.00	29.777 
01:10	74.7	74.7	74.7	70	64.2	1	5	248	0.00	29.777 
01:15	74.7	74.7	74.7	70	64.2	1	4	270	0.00	29.768 
01:20	74.6	74.6	74.6	69	63.7	1	3	22	0.00	29.768 
01:25	74.6	74.6	74.6	69	63.7	1	4	292	0.00	29.768 
01:30	74.4	74.4	74.4	69	63.5	1	7	90	0.00	29.761 
01:35	74.4	74.4	74.4	69	63.5	1	4	270	0.00	29.761 
01:40	74.2	74.2	74.2	69	63.4	0	2	270	0.00	29.761 
01:45	74.0	74.0	74.0	70	63.6	1	4	270	0.00	29.766 
01:50	74.0	74.0	74.0	70	63.6	0	2	270	0.00	29.766 
01:55	73.9	73.9	73.9	70	63.5	0	2	270	0.00	29.766 
02:00	73.9	73.9	73.9	70	63.5	0	2	270	0.00	29.768 
02:05	73.9	73.9	73.9	70	63.5	1	4	292	0.00	29.768 
02:10	73.7	73.7	73.7	70	63.3	0	2	292	0.00	29.768 
02:15	73.5	73.5	73.5	71	63.5	0	3	292	0.00	29.756 
02:20	73.5	73.5	73.5	71	63.5	1	3	315	0.00	29.756 
02:25	73.5	73.5	73.5	71	63.5	1	4	270	0.00	29.756 
02:30	73.5	73.5	73.5	71	63.5	1	2	270	0.00	29.748 
02:35	73.3	73.3	73.3	72	63.7	0	3	270	0.00	29.748 
02:40	73.3	73.3	73.3	72	63.7	1	3	270	0.00	29.748 
02:45	73.3	73.3	73.3	72	63.7	1	5	292	0.00	29.739 
02:50	73.3	73.3	73.3	73	64.1	1	4	292	0.00	29.739 
02:55	73.5	73.5	73.5	73	64.3	1	5	248	0.00	29.739 
03:00	73.5	73.5	73.5	73	64.3	1	6	248	0.00	29.733 
03:05	73.7	73.7	73.7	73	64.5	1	4	270	0.00	29.733 
03:10	73.7	73.7	73.7	73	64.5	1	3	225	0.00	29.733 
03:15	73.9	73.9	73.9	73	64.7	1	5	248	0.00	29.716 
03:20	73.9	73.9	73.9	73	64.7	1	5	270	0.00	29.716 
03:25	73.9	73.9	73.9	73	64.7	0	3	248	0.00	29.716 
03:30	73.9	73.9	73.9	73	64.7	1	2	248	0.00	29.719 
03:35	73.7	73.7	73.7	74	64.9	0	3	270	0.00	29.719 
03:40	73.9	73.9	73.9	74	65.1	1	5	248	0.00	29.719 
03:45	73.9	73.9	73.9	74	65.1	0	3	270	0.00	29.714 
03:50	73.7	73.7	73.7	74	64.9	1	6	270	0.00	29.714 
03:55	73.7	73.7	73.7	74	64.9	1	4	292	0.00	29.714 
04:00	73.9	73.9	73.9	75	65.5	1	3	270	0.00	29.717 
04:05	73.7	73.7	73.7	75	65.3	1	4	270	0.00	29.717 
04:10	73.7	73.7	73.7	75	65.3	1	4	270	0.00	29.717 
04:15	73.7	73.7	73.7	75	65.3	1	5	270	0.00	29.718 
04:20	73.7	73.7	73.7	76	65.6	0	3	270	0.00	29.718 
04:25	73.5	73.5	73.5	76	65.5	1	4	270	0.00	29.718 
04:30	73.5	73.5	73.5	77	65.8	0	3	270	0.00	29.718 
04:35	73.5	73.5	73.5	77	65.8	1	4	270	0.00	29.718 
04:40	73.5	73.5	73.5	77	65.8	0	1	270	0.00	29.718 
04:45	73.7	73.7	73.7	77	66.0	1	3	270	0.00	29.724 
04:50	73.7	73.7	73.7	77	66.0	1	3	270	0.00	29.724 
04:55	73.9	73.9	73.9	77	66.2	1	5	270	0.00	29.724 
05:00	73.7	73.7	73.7	78	66.4	1	3	315	0.00	29.725 
05:05	73.9	73.9	73.9	78	66.6	0	3	315	0.00	29.725 
05:10	73.9	73.9	73.9	78	66.6	1	4	270	0.00	29.725 
05:15	73.9	73.9	73.9	78	66.6	1	4	292	0.00	29.723 
05:20	74.0	74.0	74.0	79	67.1	1	5	270	0.00	29.723 
05:25	74.2	74.2	74.2	79	67.3	1	4	270	0.00	29.723 
05:30	74.2	74.2	74.2	79	67.3	2	6	270	0.00	29.725 
05:35	74.2	74.2	74.2	79	67.3	1	5	292	0.00	29.725 
05:40	74.2	74.2	74.2	79	67.3	1	3	292	0.00	29.725 
05:45	74.0	74.0	74.0	79	67.1	1	4	270	0.00	29.715 
05:50	74.0	74.0	74.0	79	67.1	1	3	270	0.00	29.715 
05:55	73.9	73.9	73.9	80	67.3	1	4	270	0.00	29.715 
06:00	73.9	73.9	73.9	80	67.3	1	3	270	0.00	29.708 
06:05	73.9	73.9	73.9	80	67.3	1	5	270	0.00	29.708 
06:10	73.7	73.7	73.7	80	67.1	1	5	270	0.00	29.708 
06:15	73.7	73.7	73.7	81	67.5	1	3	270	0.00	29.710 
06:20	73.5	73.5	73.5	81	67.3	1	3	270	0.00	29.710 
06:25	73.5	73.5	73.5	81	67.3	1	4	270	0.00	29.710 
06:30	73.5	73.5	73.5	81	67.3	1	4	270	0.00	29.709 
06:35	73.5	73.5	73.5	81	67.3	0	3	270	0.00	29.709 
06:40	73.5	73.5	73.5	81	67.3	1	2	270	0.00	29.709 
06:45	73.3	73.3	73.3	81	67.1	1	4	270	0.00	29.710 
06:50	73.3	73.3	73.3	81	67.1	1	2	270	0.00	29.710 
06:55	73.3	73.3	73.3	81	67.1	1	3	270	0.00	29.710 
07:00	73.3	73.3	73.3	81	67.1	1	4	292	0.00	29.713 
07:05	73.3	73.3	73.3	81	67.1	1	3	292	0.00	29.713 
07:10	73.3	73.3	73.3	81	67.1	1	5	292	0.00	29.713 
07:15	73.2	73.2	73.2	82	67.4	1	3	292	0.00	29.727 
07:20	73.0	73.0	73.0	83	67.5	0	2	292	0.00	29.727 
07:25	72.7	72.7	72.7	84	67.6	0	4	292	0.00	29.727 
07:30	72.5	72.5	72.5	85	67.7	1	3	292	0.00	29.727 
07:35	72.3	72.3	72.3	85	67.5	0	2	292	0.00	29.727 
07:40	72.1	72.1	72.1	86	67.7	0	1	292	0.00	29.727 
07:45	72.1	72.1	72.1	86	67.7	0	3	292	0.00	29.732 
07:50	72.0	72.0	72.0	87	67.9	0	1	292	0.00	29.732 
07:55	72.0	72.0	72.0	87	67.9	0	2	292	0.00	29.732 
08:00	72.0	72.0	72.0	87	67.9	0	3	292	0.00	29.729 
08:05	72.0	72.0	72.0	87	67.9	0	2	292	0.00	29.729 
08:10	72.0	72.0	72.0	87	67.9	0	2	292	0.00	29.729 
08:15	72.1	72.1	72.1	87	68.0	0	1	292	0.00	29.728 
08:20	72.1	72.1	72.1	87	68.0	1	4	292	0.00	29.728 
08:25	72.3	72.3	72.3	87	68.2	0	2	292	0.00	29.728 
08:30	72.5	72.5	72.5	87	68.4	1	4	292	0.00	29.721 
08:35	72.7	72.7	72.7	86	68.3	0	3	292	0.00	29.721 
08:40	72.8	72.8	72.8	86	68.4	0	2	292	0.00	29.721 
08:45	72.8	72.8	72.8	86	68.4	0	3	292	0.00	29.725 
08:50	72.8	72.8	72.8	86	68.4	0	2	292	0.00	29.725 
08:55	73.0	73.0	73.0	86	68.6	0	3	292	0.00	29.725 
09:00	73.0	73.0	73.0	86	68.6	1	4	292	0.00	29.724 
09:05	73.0	73.0	73.0	86	68.6	0	3	292	0.00	29.724 
09:10	73.0	73.0	73.0	85	68.2	1	5	292	0.00	29.724 
09:15	73.0	73.0	73.0	85	68.2	0	2	292	0.00	29.725 
09:20	73.2	73.2	73.2	85	68.4	0	2	292	0.00	29.725 
09:25	73.0	73.0	73.0	85	68.2	0	2	292	0.00	29.725 
09:30	72.8	72.8	72.8	85	68.0	0	2	292	0.00	29.728 
09:35	72.7	72.7	72.7	85	67.9	0	2	292	0.00	29.728 
09:40	72.7	72.7	72.7	86	68.3	0	4	292	0.00	29.728 
09:45	72.5	72.5	72.5	86	68.1	0	3	292	0.00	29.732 
09:50	72.5	72.5	72.5	86	68.1	0	2	292	0.00	29.732 
09:55	72.5	72.5	72.5	86	68.1	0	2	292	0.00	29.732 
10:00	72.3	72.3	72.3	86	67.9	0	3	292	0.00	29.733 
10:05	72.3	72.3	72.3	86	67.9	0	2	292	0.00	29.733 
10:10	72.3	72.3	72.3	87	68.2	0	2	292	0.00	29.733 
10:15	72.3	72.3	72.3	87	68.2	1	3	292	0.00	29.733 
10:20	72.3	72.3	72.3	87	68.2	0	2	292	0.00	29.733 
10:25	72.3	72.3	72.3	88	68.5	0	2	292	0.00	29.733 
10:30	72.1	72.1	72.1	88	68.3	1	3	292	0.00	29.732 
10:35	72.1	72.1	72.1	88	68.3	0	2	292	0.00	29.732 
10:40	72.0	72.0	72.0	89	68.6	0	1	292	0.00	29.732 
10:45	72.0	72.0	72.0	89	68.6	0	2	292	0.00	29.733 
10:50	72.0	72.0	72.0	89	68.6	0	1	292	0.00	29.733 
10:55	72.0	72.0	72.0	89	68.6	0	1	292	0.00	29.733 
11:00	72.1	72.1	72.1	89	68.7	0	2	292	0.00	29.731 
11:05	72.1	72.1	72.1	89	68.7	1	4	292	0.00	29.731 
11:10	72.3	72.3	72.3	89	68.9	0	1	292	0.00	29.731 
11:15	72.5	72.5	72.5	89	69.1	0	2	292	0.00	29.736 
11:20	72.7	72.7	72.7	89	69.3	1	4	292	0.00	29.736 
11:25	72.8	72.8	72.8	89	69.4	0	1	292	0.00	29.736 
11:30	73.0	73.0	73.0	88	69.2	1	2	292	0.00	29.734 
11:35	73.2	73.2	73.2	88	69.4	1	3	292	0.00	29.734 
11:40	73.3	73.3	73.3	88	69.5	1	4	292	0.00	29.734 
11:45	73.5	73.5	73.5	88	69.7	1	3	292	0.00	29.732 
11:50	73.9	73.9	73.9	88	70.1	1	3	292	0.00	29.732 
11:55	74.6	74.6	74.6	87	70.5	1	3	292	0.00	29.732 
12:00	75.3	75.3	75.4	85	70.5	1	4	292	0.00	29.726 
12:05	76.0	76.0	76.7	83	70.4	2	6	292	0.00	29.726 
12:10	76.8	76.8	78.2	82	70.9	2	5	270	0.00	29.726 
12:15	77.2	77.2	78.9	81	70.9	1	3	270	0.00	29.723 
12:20	77.4	77.4	79.3	79	70.4	2	5	270	0.00	29.723 
12:25	77.4	77.4	79.3	79	70.4	2	5	270	0.00	29.723 
12:30	77.6	77.6	79.6	79	70.6	1	4	270	0.00	29.722 
12:35	77.9	77.9	80.1	78	70.5	2	5	292	0.00	29.722 
12:40	77.9	77.9	80.1	77	70.1	2	5	292	0.00	29.722 
12:45	78.1	78.1	80.4	78	70.7	1	3	292	0.00	29.724 
12:50	78.1	78.1	80.4	77	70.3	1	4	292	0.00	29.724 
12:55	77.9	77.9	80.1	77	70.1	1	5	292	0.00	29.724 
13:00	77.7	77.7	79.7	78	70.3	2	6	270	0.00	29.728 
13:05	77.7	77.7	79.7	78	70.3	1	3	270	0.00	29.728 
13:10	77.6	77.6	79.6	78	70.2	1	5	270	0.00	29.728 
13:15	77.4	77.4	79.3	78	70.0	1	3	270	0.00	29.727 
13:20	77.4	77.4	79.3	78	70.0	2	4	270	0.00	29.727 
13:25	77.4	77.4	79.3	79	70.4	2	5	270	0.00	29.727 
13:30	77.9	77.9	80.1	78	70.5	1	4	292	0.00	29.722 
13:35	78.3	78.3	80.8	78	70.9	1	3	292	0.00	29.722 
13:40	79.0	79.0	81.9	76	70.8	1	5	292	0.00	29.722 
13:45	79.8	79.8	83.2	75	71.1	2	5	292	0.00	29.707 
13:50	80.7	80.7	84.7	74	71.6	2	5	292	0.00	29.707 
13:55	81.4	81.4	85.9	73	71.9	1	4	292	0.00	29.707 
14:00	81.8	81.8	86.3	71	71.5	1	3	292	0.00	29.703 
14:05	82.6	82.6	88.1	72	72.6	1	2	292	0.00	29.703 
14:10	83.0	83.0	88.1	69	71.8	1	4	292	0.00	29.703 
14:15	83.2	83.2	88.0	67	71.1	2	6	270	0.00	29.703 
14:20	82.8	82.8	86.7	65	69.8	3	6	270	0.00	29.703 
14:25	82.4	82.4	86.7	68	70.8	2	6	270	0.00	29.703 
14:30	83.0	83.0	87.3	66	70.4	1	4	270	0.00	29.701 
14:35	83.0	83.0	87.6	67	70.9	2	4	248	0.00	29.701 
14:40	83.2	83.2	87.5	65	70.2	1	4	248	0.00	29.701 
14:45	83.0	83.0	86.9	64	69.5	1	3	270	0.00	29.700 
14:50	82.8	82.8	86.7	65	69.8	1	4	270	0.00	29.700 
14:55	83.0	83.0	87.1	65	70.0	1	3	90	0.00	29.700 
15:00	83.4	83.4	87.8	65	70.4	1	4	292	0.00	29.696 
15:05	84.1	84.1	88.5	63	70.1	1	5	292	0.00	29.696 
15:10	84.3	84.3	88.6	62	69.8	1	3	292	0.00	29.696 
15:15	84.0	84.0	88.9	65	70.9	1	3	292	0.00	29.703 
15:20	83.6	83.6	87.9	64	70.1	1	4	292	0.00	29.703 
15:25	84.0	84.0	88.9	65	70.9	1	4	292	0.00	29.703 
15:30	83.6	83.6	88.2	65	70.6	1	3	292	0.00	29.703 
15:35	83.2	83.2	87.5	65	70.2	0	2	292	0.00	29.703 
15:40	82.6	82.6	86.6	66	70.1	1	3	292	0.00	29.703 
15:45	82.0	82.0	85.8	67	69.9	1	4	292	0.00	29.704 
15:50	81.8	81.8	85.9	69	70.6	1	3	292	0.00	29.704 
15:55	82.2	82.2	86.6	69	71.0	1	4	292	0.00	29.704 
16:00	82.8	82.8	87.5	68	71.1	2	4	292	0.00	29.700 
16:05	83.0	83.0	87.1	65	70.0	1	4	292	0.00	29.700 
16:10	83.2	83.2	87.5	65	70.2	1	4	292	0.00	29.700 
16:15	83.2	83.2	87.7	66	70.6	1	3	292	0.00	29.691 
16:20	83.0	83.0	87.1	65	70.0	1	4	292	0.00	29.691 
16:25	83.2	83.2	87.7	66	70.6	1	3	315	0.00	29.691 
16:30	83.8	83.8	88.8	66	71.2	1	4	315	0.00	29.687 
16:35	84.0	84.0	88.4	63	70.0	1	3	315	0.00	29.687 
16:40	84.0	84.0	88.6	64	70.5	1	2	292	0.00	29.687 
16:45	84.3	84.3	88.0	60	68.9	2	5	270	0.00	29.677 
16:50	84.7	84.7	88.1	58	68.3	2	5	270	0.00	29.677 
16:55	84.9	84.9	88.8	59	68.9	1	4	270	0.00	29.677 
17:00	84.7	84.7	88.1	58	68.3	1	4	292	0.00	29.686 
17:05	84.7	84.7	88.1	58	68.3	1	3	292	0.00	29.686 
17:10	85.1	85.1	88.2	56	67.6	1	4	315	0.00	29.686 
17:15	84.5	84.5	86.7	54	66.0	2	5	292	0.00	29.676 
17:20	84.3	84.3	87.2	57	67.4	1	3	270	0.00	29.676 
17:25	84.5	84.5	87.5	57	67.6	1	2	292	0.00	29.676 
17:30	84.7	84.7	88.1	58	68.3	1	4	112	0.00	29.672 
17:35	84.7	84.7	87.6	56	67.2	1	4	112	0.00	29.672 
17:40	85.1	85.1	88.5	57	68.1	1	3	338	0.00	29.672 
17:45	85.3	85.3	88.8	57	68.3	1	3	338	0.00	29.670 
17:50	85.3	85.3	88.5	56	67.8	1	3	0	0.00	29.670 
17:55	84.9	84.9	87.9	56	67.4	1	3	315	0.00	29.670 
18:00	84.3	84.3	86.7	55	66.3	1	3	315	0.00	29.674 
18:05	84.1	84.1	86.7	56	66.7	1	4	315	0.00	29.674 
18:10	83.8	83.8	86.2	56	66.4	2	4	315	0.00	29.674 
18:15	83.0	83.0	86.4	62	68.6	2	6	292	0.00	29.689 
18:20	81.1	81.1	84.5	68	69.5	1	3	292	0.00	29.689 
18:25	79.4	79.4	82.2	72	69.6	1	5	315	0.00	29.689 
18:30	78.1	78.1	80.4	76	69.9	1	6	315	0.01	29.694 
18:35	77.2	77.2	78.9	80	70.5	0	1	338	0.00	29.694 
18:40	76.5	76.5	77.7	82	70.6	0	1	338	0.01	29.694 
18:45	76.0	76.0	76.7	84	70.8	0	0	---	0.01	29.695 
18:50	75.8	75.8	76.2	85	71.0	0	0	---	0.00	29.695 
18:55	75.6	75.6	75.6	87	71.4	0	1	338	0.05	29.695 
19:00	75.1	75.1	74.7	87	71.0	0	2	338	0.00	29.697 
19:05	74.7	74.7	74.7	87	70.6	2	5	338	0.03	29.697 
19:10	73.3	73.3	73.3	86	68.8	1	2	270	0.01	29.697 
19:15	73.0	73.0	73.0	88	69.2	0	1	270	0.00	29.695 
19:20	73.0	73.0	73.0	88	69.2	0	1	270	0.00	29.695 
19:25	73.2	73.2	73.2	89	69.8	0	1	270	0.00	29.695 
19:30	73.5	73.5	73.5	90	70.4	0	1	270	0.00	29.690 
19:35	73.9	73.9	73.9	90	70.8	0	1	270	0.00	29.690 
19:40	74.0	74.0	74.0	90	70.9	0	1	270	0.00	29.690 
19:45	74.4	74.4	74.4	90	71.3	0	1	270	0.00	29.694 
19:50	74.6	74.6	74.6	90	71.5	0	0	---	0.00	29.694 
19:55	74.6	74.6	74.6	90	71.5	0	0	---	0.00	29.694 
20:00	74.7	74.7	74.7	90	71.6	0	1	270	0.00	29.696 
20:05	74.9	74.9	74.9	90	71.8	0	1	270	0.00	29.696 
20:10	75.1	75.1	74.3	90	72.0	0	1	270	0.00	29.696 
20:15	75.4	75.4	75.0	89	71.9	1	3	270	0.00	29.697 
20:20	76.0	76.0	76.3	88	72.2	1	4	270	0.00	29.697 
20:25	76.3	76.3	76.9	87	72.1	0	2	270	0.00	29.697 
20:30	76.3	76.3	77.0	86	71.8	0	1	270	0.00	29.699 
20:35	76.3	76.3	76.9	87	72.1	0	0	---	0.00	29.699 
20:40	76.3	76.3	76.9	87	72.1	0	0	---	0.00	29.699 
20:45	76.3	76.3	76.8	88	72.5	0	0	---	0.00	29.712 
20:50	76.1	76.1	76.5	88	72.3	0	1	270	0.00	29.712 
20:55	76.0	76.0	76.3	88	72.2	0	1	270	0.00	29.712 
21:00	75.8	75.8	75.9	88	72.0	0	0	---	0.00	29.711 
21:05	75.6	75.6	75.5	88	71.8	0	0	---	0.00	29.711 
21:10	75.4	75.4	75.0	89	71.9	0	1	270	0.00	29.711 
21:15	75.1	75.1	74.4	89	71.6	0	0	---	0.00	29.722 
21:20	74.9	74.9	74.9	89	71.4	0	0	---	0.00	29.722 
21:25	74.7	74.7	74.7	89	71.2	0	0	---	0.00	29.722 
21:30	74.7	74.7	74.7	90	71.6	0	0	---	0.00	29.727 
21:35	74.6	74.6	74.6	90	71.5	0	0	---	0.00	29.727 
21:40	74.6	74.6	74.6	90	71.5	0	1	270	0.00	29.727 
21:45	74.4	74.4	74.4	90	71.3	0	1	270	0.00	29.726 
21:50	74.2	74.2	74.2	90	71.1	0	0	---	0.00	29.726 
21:55	74.0	74.0	74.0	90	70.9	0	0	---	0.00	29.726 
22:00	73.7	73.7	73.7	90	70.6	0	0	---	0.00	29.717 
22:05	73.5	73.5	73.5	91	70.7	0	0	---	0.00	29.717 
22:10	73.3	73.3	73.3	91	70.5	0	0	---	0.00	29.717 
22:15	73.2	73.2	73.2	91	70.4	0	0	---	0.00	29.717 
22:20	73.0	73.0	73.0	91	70.2	0	0	---	0.00	29.717 
22:25	73.0	73.0	73.0	92	70.5	0	0	---	0.00	29.717 
22:30	72.8	72.8	72.8	92	70.3	0	0	---	0.00	29.728 
22:35	72.8	72.8	72.8	92	70.3	0	0	---	0.00	29.728 
22:40	72.8	72.8	72.8	92	70.3	0	0	---	0.00	29.728 
22:45	72.8	72.8	72.8	92	70.3	0	0	---	0.00	29.731 
22:50	72.8	72.8	72.8	92	70.3	0	0	---	0.00	29.731 
22:55	72.8	72.8	72.8	92	70.3	0	1	270	0.00	29.731 
23:00	72.8	72.8	72.8	92	70.3	0	1	270	0.00	29.733 
23:05	72.7	72.7	72.7	92	70.2	0	0	---	0.00	29.733 
23:10	72.7	72.7	72.7	92	70.2	0	0	---	0.00	29.733 
23:15	72.5	72.5	72.5	92	70.0	0	0	---	0.00	29.728 
23:20	72.3	72.3	72.3	92	69.8	0	0	---	0.00	29.728 
23:25	72.3	72.3	72.3	92	69.8	0	0	---	0.00	29.728 
23:30	72.3	72.3	72.3	92	69.8	0	0	---	0.00	29.728 
23:35	72.1	72.1	72.1	93	70.0	0	0	---	0.00	29.728 
23:40	72.1	72.1	72.1	93	70.0	0	1	270	0.00	29.728 
23:45	72.1	72.1	72.1	93	70.0	0	0	---	0.00	29.733 
23:50	72.1	72.1	72.1	93	70.0	0	1	270	0.00	29.733 
23:55	72.0	72.0	72.0	93	69.9	0	0	---	0.00	29.733 

CoCoRaHS
IN-AL-39
A2 Web Hosting
Creative Commons License
GoDaddy
search engine by freefind advanced

loaded 2018-11-12 19:33:04 • last modified 2010-11-18 10:43:29
Privacy PolicyDisclaimer
• wx.awcolley.com is powered by PmWiki v.2002016 •
• all content (unless otherwise noted) © 2018 A W Colley